Time;durP1;ratioP1;P1;durP2;ratioP2;P2;SDS_P1;SDS_P2;PMS_P1;PMS_P2;Temp;Humidity;BMP_temperature;BMP_pressure;BME280_temperature;BME280_humidity;BME280_pressure;Samples;Min_cycle;Max_cycle;Signal;HPM_P1;HPM_P2
2023/05/20 00:00:09;;;;;;;8.55;2.78;;;16.10;54.20;;;;;;5057945;28;20541;-63
2023/05/20 00:02:35;;;;;;;8.27;2.67;;;16.10;54.20;;;;;;5071077;28;20189;-63
2023/05/20 00:05:01;;;;;;;6.45;2.80;;;16.00;54.30;;;;;;5072515;28;20039;-62
2023/05/20 00:07:27;;;;;;;9.20;2.85;;;16.00;54.30;;;;;;5072441;28;20481;-62
2023/05/20 00:09:52;;;;;;;10.40;2.90;;;16.00;54.40;;;;;;5054124;28;20159;-62
2023/05/20 00:12:18;;;;;;;7.68;3.38;;;16.00;54.50;;;;;;5068794;28;20468;-63
2023/05/20 00:14:44;;;;;;;8.98;3.40;;;16.00;54.50;;;;;;5063636;28;20021;-63
2023/05/20 00:17:10;;;;;;;5.28;2.42;;;15.90;54.50;;;;;;5062216;28;20025;-62
2023/05/20 00:19:35;;;;;;;9.43;2.78;;;16.00;54.60;;;;;;5059738;28;20031;-62
2023/05/20 00:22:01;;;;;;;8.95;3.35;;;16.00;54.60;;;;;;5066762;28;20036;-62
2023/05/20 00:24:27;;;;;;;7.90;2.60;;;15.90;54.60;;;;;;5070554;28;20100;-63
2023/05/20 00:26:53;;;;;;;8.75;3.13;;;15.90;54.70;;;;;;5071337;28;20044;-63
2023/05/20 00:29:21;;;;;;;8.07;2.90;;;15.90;54.70;;;;;;5075011;28;20021;-62
2023/05/20 00:31:47;;;;;;;4.82;2.15;;;15.90;54.80;;;;;;5063238;28;20106;-62
2023/05/20 00:34:13;;;;;;;8.43;2.88;;;15.90;54.90;;;;;;5069319;28;20445;-62
2023/05/20 00:36:39;;;;;;;8.18;3.13;;;15.90;54.90;;;;;;5068670;28;20052;-62
2023/05/20 00:39:05;;;;;;;5.70;2.70;;;15.90;55.00;;;;;;5064582;28;20025;-62
2023/05/20 00:41:31;;;;;;;7.78;2.92;;;15.90;55.10;;;;;;5073059;28;20025;-62
2023/05/20 00:43:57;;;;;;;9.25;3.13;;;15.90;55.20;;;;;;5047832;28;20365;-62
2023/05/20 00:46:25;;;;;;;11.63;4.10;;;15.90;55.20;;;;;;5075718;28;20036;-62
2023/05/20 00:48:51;;;;;;;9.57;3.42;;;15.90;55.20;;;;;;5069382;28;20345;-62
2023/05/20 00:51:17;;;;;;;9.90;3.10;;;15.90;55.30;;;;;;5072735;28;20468;-62
2023/05/20 00:53:44;;;;;;;8.95;3.28;;;15.90;55.30;;;;;;5073950;28;20017;-62
2023/05/20 00:56:10;;;;;;;9.50;3.35;;;15.90;55.40;;;;;;5076772;28;20029;-62
2023/05/20 00:58:36;;;;;;;7.03;3.13;;;15.90;55.50;;;;;;5076033;28;20047;-62
2023/05/20 01:01:04;;;;;;;7.97;3.38;;;15.90;55.50;;;;;;5074709;28;20404;-62
2023/05/20 01:03:30;;;;;;;11.07;3.72;;;15.90;55.60;;;;;;5066071;28;20032;-62
2023/05/20 01:05:56;;;;;;;6.13;2.75;;;15.80;55.60;;;;;;5062924;28;20456;-62
2023/05/20 01:08:24;;;;;;;9.93;3.10;;;15.80;55.70;;;;;;5058334;28;20021;-62
2023/05/20 01:11:15;;;;;;;6.72;3.08;;;15.80;55.80;;;;;;5075021;28;20055;-62
2023/05/20 01:13:53;;;;;;;8.73;3.33;;;15.80;55.90;;;;;;5066197;28;20027;-62
2023/05/20 01:16:22;;;;;;;7.22;3.45;;;15.70;56.10;;;;;;5068327;28;20113;-62
2023/05/20 01:18:49;;;;;;;9.75;3.50;;;15.70;56.10;;;;;;5072475;28;20098;-62
2023/05/20 01:21:16;;;;;;;9.73;3.38;;;15.70;56.20;;;;;;5072219;28;20496;-62
2023/05/20 01:23:43;;;;;;;9.32;3.65;;;15.70;56.30;;;;;;5072496;28;20047;-62
2023/05/20 01:26:12;;;;;;;8.02;3.30;;;15.70;56.20;;;;;;5074728;28;20150;-62
2023/05/20 01:28:38;;;;;;;8.85;3.67;;;15.70;56.30;;;;;;5074382;28;20154;-62
2023/05/20 01:31:09;;;;;;;9.13;3.40;;;15.70;56.30;;;;;;5074651;28;20441;-62
2023/05/20 01:33:40;;;;;;;8.20;3.25;;;15.60;56.30;;;;;;5072396;28;20024;-62
2023/05/20 01:36:07;;;;;;;6.57;3.28;;;15.60;56.50;;;;;;5069705;28;20104;-63
2023/05/20 01:38:36;;;;;;;7.72;3.50;;;15.60;56.60;;;;;;5073402;28;20039;-62
2023/05/20 01:41:04;;;;;;;8.63;3.33;;;15.60;56.80;;;;;;5058331;28;20043;-62
2023/05/20 01:43:32;;;;;;;9.02;3.65;;;15.60;56.80;;;;;;5066060;28;20052;-62
2023/05/20 01:45:58;;;;;;;8.05;3.13;;;15.60;56.80;;;;;;5073213;28;20029;-62
2023/05/20 01:48:24;;;;;;;10.57;3.45;;;15.60;56.90;;;;;;5069895;28;20024;-62
2023/05/20 01:50:51;;;;;;;7.60;3.40;;;15.60;57.00;;;;;;5075439;28;20024;-62
2023/05/20 01:53:17;;;;;;;8.13;3.38;;;15.60;57.00;;;;;;5069253;28;20016;-63
2023/05/20 01:55:42;;;;;;;10.43;3.90;;;15.60;57.10;;;;;;5074769;28;20500;-62
2023/05/20 01:58:08;;;;;;;7.65;3.78;;;15.60;57.10;;;;;;5073730;28;20021;-62
2023/05/20 02:00:35;;;;;;;10.40;3.22;;;15.60;57.10;;;;;;5057817;28;20016;-62
2023/05/20 02:03:02;;;;;;;9.18;3.53;;;15.50;57.10;;;;;;5065287;28;20021;-62
2023/05/20 02:05:29;;;;;;;8.02;3.53;;;15.60;57.20;;;;;;5074540;28;20020;-62
2023/05/20 02:07:55;;;;;;;8.90;3.25;;;15.50;57.20;;;;;;5071469;28;20035;-62
2023/05/20 02:10:21;;;;;;;8.82;3.53;;;15.50;57.20;;;;;;5072777;28;20059;-62
2023/05/20 02:12:48;;;;;;;6.53;3.53;;;15.50;57.30;;;;;;5072246;28;20110;-62
2023/05/20 02:15:14;;;;;;;8.88;3.90;;;15.50;57.30;;;;;;5057831;28;20099;-62
2023/05/20 02:17:42;;;;;;;9.65;3.60;;;15.50;57.40;;;;;;5070576;28;20036;-62
2023/05/20 02:20:09;;;;;;;8.35;3.72;;;15.50;57.50;;;;;;5073426;28;20021;-62
2023/05/20 02:22:35;;;;;;;9.32;3.55;;;15.50;57.50;;;;;;5066930;28;20306;-62
2023/05/20 02:25:02;;;;;;;7.43;3.33;;;15.50;57.60;;;;;;5056567;28;20070;-62
2023/05/20 02:27:28;;;;;;;6.85;3.45;;;15.40;57.60;;;;;;5046083;28;20044;-65
2023/05/20 02:29:54;;;;;;;7.57;3.33;;;15.50;57.80;;;;;;5071892;28;20052;-62
2023/05/20 02:32:20;;;;;;;8.10;3.50;;;15.40;57.70;;;;;;5067833;28;20025;-62
2023/05/20 02:34:46;;;;;;;7.15;3.05;;;15.40;57.80;;;;;;5071715;28;20023;-62
2023/05/20 02:37:11;;;;;;;8.52;3.40;;;15.40;57.90;;;;;;5071234;28;20108;-62
2023/05/20 02:39:37;;;;;;;7.47;3.25;;;15.40;58.00;;;;;;5066179;28;20071;-62
2023/05/20 02:42:03;;;;;;;7.47;3.55;;;15.40;58.10;;;;;;5073207;28;20461;-62
2023/05/20 02:44:29;;;;;;;9.57;3.47;;;15.40;58.10;;;;;;5047580;28;20361;-64
2023/05/20 02:46:55;;;;;;;8.50;3.42;;;15.40;58.20;;;;;;5072334;28;20098;-62
2023/05/20 02:49:21;;;;;;;7.18;3.22;;;15.40;58.20;;;;;;5047577;28;20040;-62
2023/05/20 02:51:47;;;;;;;9.15;3.10;;;15.30;58.30;;;;;;5069353;28;20074;-63
2023/05/20 02:54:13;;;;;;;7.97;3.10;;;15.30;58.30;;;;;;5071600;28;20056;-63
2023/05/20 02:56:39;;;;;;;8.73;3.13;;;15.30;58.40;;;;;;5073665;28;20500;-63
2023/05/20 02:59:06;;;;;;;8.88;3.38;;;15.30;58.40;;;;;;5072784;28;20127;-63
2023/05/20 03:01:34;;;;;;;9.07;3.05;;;15.30;58.50;;;;;;5066524;28;20398;-63
2023/05/20 03:04:02;;;;;;;9.38;3.35;;;15.30;58.60;;;;;;5058787;28;20468;-62
2023/05/20 03:06:29;;;;;;;7.70;3.20;;;15.30;58.80;;;;;;5063129;28;20476;-62
2023/05/20 03:08:55;;;;;;;6.85;3.20;;;15.20;58.80;;;;;;5066868;28;20033;-62
2023/05/20 03:11:21;;;;;;;6.93;3.60;;;15.20;58.80;;;;;;5072320;28;20115;-62
2023/05/20 03:13:47;;;;;;;7.95;3.88;;;15.20;58.80;;;;;;5062070;28;20366;-62
2023/05/20 03:16:15;;;;;;;7.82;3.38;;;15.20;58.90;;;;;;5073036;28;20092;-63
2023/05/20 03:18:43;;;;;;;10.95;3.45;;;15.20;58.90;;;;;;5063562;28;20025;-62
2023/05/20 03:21:09;;;;;;;7.53;3.50;;;15.20;59.00;;;;;;5072122;28;20032;-62
2023/05/20 03:23:35;;;;;;;8.43;3.40;;;15.10;59.20;;;;;;5069584;28;20090;-62
2023/05/20 03:26:02;;;;;;;10.00;3.65;;;15.10;59.10;;;;;;5066103;28;20036;-62
2023/05/20 03:28:27;;;;;;;7.32;3.60;;;15.10;59.20;;;;;;5063726;28;20052;-62
2023/05/20 03:30:54;;;;;;;9.23;3.65;;;15.10;59.30;;;;;;5054603;28;20032;-62
2023/05/20 03:33:21;;;;;;;7.90;3.50;;;15.00;59.30;;;;;;5059805;28;20353;-62
2023/05/20 03:35:47;;;;;;;7.00;2.97;;;15.10;59.50;;;;;;5063144;28;20070;-62
2023/05/20 03:38:14;;;;;;;9.20;3.25;;;15.00;59.50;;;;;;5071859;28;20025;-61
2023/05/20 03:40:40;;;;;;;8.57;4.00;;;15.00;59.50;;;;;;5069279;28;20021;-62
2023/05/20 03:43:06;;;;;;;11.98;3.60;;;15.00;59.60;;;;;;5065460;28;20031;-62
2023/05/20 03:45:33;;;;;;;8.88;3.40;;;15.00;59.60;;;;;;5070870;28;20043;-62
2023/05/20 03:48:04;;;;;;;10.40;3.78;;;15.00;59.70;;;;;;5066873;28;20025;-62
2023/05/20 03:50:33;;;;;;;8.50;3.35;;;15.00;59.80;;;;;;5066738;28;20055;-63
2023/05/20 03:53:00;;;;;;;7.70;3.53;;;14.90;59.80;;;;;;5070835;28;20028;-63
2023/05/20 03:55:26;;;;;;;8.77;3.22;;;14.90;59.80;;;;;;5061188;28;20075;-63
2023/05/20 03:57:53;;;;;;;10.00;3.40;;;14.90;59.90;;;;;;5067934;28;20033;-63
2023/05/20 04:00:18;;;;;;;9.02;3.58;;;14.90;59.90;;;;;;5069776;28;20404;-63
2023/05/20 04:02:44;;;;;;;7.38;3.45;;;14.90;60.00;;;;;;5067796;28;20032;-63
2023/05/20 04:05:13;;;;;;;7.40;3.45;;;14.90;60.10;;;;;;5067487;28;20031;-63
2023/05/20 04:07:40;;;;;;;6.43;3.33;;;14.90;60.10;;;;;;5058577;28;20060;-64
2023/05/20 04:10:07;;;;;;;7.25;2.88;;;14.90;60.10;;;;;;5052699;28;20032;-63
2023/05/20 04:12:34;;;;;;;9.13;3.13;;;14.90;60.10;;;;;;5063106;28;20032;-63
2023/05/20 04:15:01;;;;;;;9.50;3.40;;;14.90;60.20;;;;;;5070904;28;20059;-63
2023/05/20 04:17:31;;;;;;;8.52;3.60;;;14.80;60.90;;;;;;5066823;28;20029;-63
2023/05/20 04:19:58;;;;;;;7.15;3.60;;;14.80;60.30;;;;;;5067681;28;20038;-63
2023/05/20 04:22:25;;;;;;;7.13;3.25;;;14.90;60.40;;;;;;5060844;28;20044;-63
2023/05/20 04:24:51;;;;;;;8.00;3.35;;;14.80;60.40;;;;;;5070705;28;20052;-64
2023/05/20 04:27:17;;;;;;;9.38;3.88;;;14.90;60.50;;;;;;5067285;28;20029;-64
2023/05/20 04:29:45;;;;;;;6.97;3.00;;;14.80;60.40;;;;;;5066102;28;20035;-64
2023/05/20 04:32:17;;;;;;;9.05;3.15;;;14.80;60.40;;;;;;5064131;28;20029;-64
2023/05/20 04:34:44;;;;;;;7.63;3.40;;;14.90;60.50;;;;;;5049251;28;20020;-64
2023/05/20 04:37:12;;;;;;;7.78;3.20;;;14.90;60.40;;;;;;5064852;28;20017;-64
2023/05/20 04:39:39;;;;;;;7.95;3.28;;;14.90;60.40;;;;;;5071508;28;20025;-64
2023/05/20 04:42:06;;;;;;;6.22;2.85;;;14.90;60.30;;;;;;5072104;28;20025;-64
2023/05/20 04:44:32;;;;;;;8.23;2.83;;;15.00;60.40;;;;;;5062281;28;20116;-64
2023/05/20 04:46:58;;;;;;;6.63;2.75;;;15.00;60.40;;;;;;5054934;28;20401;-64
2023/05/20 04:49:28;;;;;;;8.32;3.03;;;15.00;60.40;;;;;;5065828;28;20021;-64
2023/05/20 04:51:54;;;;;;;7.18;3.10;;;15.00;60.50;;;;;;5060482;28;20031;-64
2023/05/20 04:54:20;;;;;;;6.85;3.47;;;15.00;60.40;;;;;;5052784;28;20029;-64
2023/05/20 04:56:46;;;;;;;8.02;3.08;;;15.00;60.40;;;;;;5054228;28;20051;-64
2023/05/20 04:59:13;;;;;;;8.23;3.78;;;15.00;60.40;;;;;;5051713;28;20390;-65
2023/05/20 05:01:39;;;;;;;8.52;3.60;;;15.10;60.50;;;;;;5048866;28;20033;-64
2023/05/20 05:04:05;;;;;;;7.28;3.33;;;15.10;60.50;;;;;;5067140;28;20499;-64
2023/05/20 05:06:31;;;;;;;8.43;2.97;;;15.10;60.40;;;;;;5065531;28;20354;-64
2023/05/20 05:08:58;;;;;;;8.50;3.00;;;15.10;60.40;;;;;;5062895;28;20056;-64
2023/05/20 05:11:25;;;;;;;7.15;2.92;;;15.20;60.30;;;;;;5073812;28;20549;-64
2023/05/20 05:13:51;;;;;;;15.93;3.30;;;15.20;60.30;;;;;;5069346;28;20103;-64
2023/05/20 05:16:20;;;;;;;7.53;3.15;;;15.30;60.30;;;;;;5072584;28;20028;-64
2023/05/20 05:18:46;;;;;;;8.40;3.10;;;15.50;60.10;;;;;;5075490;28;20351;-64
2023/05/20 05:21:11;;;;;;;6.57;3.10;;;16.10;59.60;;;;;;5075009;28;20028;-64
2023/05/20 05:23:37;;;;;;;7.43;2.97;;;17.00;57.80;;;;;;5070977;28;20119;-65
2023/05/20 05:26:03;;;;;;;6.38;3.20;;;17.60;56.10;;;;;;5069190;28;20078;-64
2023/05/20 05:28:29;;;;;;;7.07;3.03;;;17.60;55.80;;;;;;5075750;28;20418;-64
2023/05/20 05:30:55;;;;;;;7.70;3.30;;;17.30;56.10;;;;;;5075843;28;20455;-64
2023/05/20 05:33:21;;;;;;;6.88;3.25;;;17.10;56.50;;;;;;5074858;28;20016;-64
2023/05/20 05:35:47;;;;;;;8.95;2.92;;;17.00;56.80;;;;;;5072686;28;20042;-64
2023/05/20 05:38:13;;;;;;;8.02;3.10;;;16.90;57.00;;;;;;5062355;28;20025;-64
2023/05/20 05:40:39;;;;;;;6.53;2.80;;;16.90;57.30;;;;;;5069116;28;20030;-64
2023/05/20 05:43:05;;;;;;;6.78;3.00;;;16.80;57.40;;;;;;5063050;28;20025;-64
2023/05/20 05:45:32;;;;;;;6.95;2.92;;;16.80;57.40;;;;;;5074267;28;20481;-64
2023/05/20 05:47:58;;;;;;;7.53;2.75;;;16.90;57.30;;;;;;5064620;28;20112;-64
2023/05/20 05:50:24;;;;;;;6.90;2.90;;;16.90;57.20;;;;;;5067022;28;20115;-64
2023/05/20 05:52:50;;;;;;;7.43;2.80;;;17.00;57.10;;;;;;5074975;28;20013;-64
2023/05/20 05:55:17;;;;;;;6.40;2.85;;;17.00;57.10;;;;;;5052214;28;20084;-64
2023/05/20 05:57:43;;;;;;;6.13;2.80;;;17.10;57.00;;;;;;5073947;28;20017;-64
2023/05/20 06:00:11;;;;;;;6.25;2.50;;;17.10;56.90;;;;;;5068664;28;20119;-64
2023/05/20 06:02:47;;;;;;;7.40;2.88;;;17.20;56.90;;;;;;5076002;28;20060;-64
2023/05/20 06:05:24;;;;;;;7.50;2.72;;;17.30;56.80;;;;;;5066928;28;20464;-64
2023/05/20 06:07:52;;;;;;;6.50;2.47;;;17.40;56.80;;;;;;5072547;28;20462;-65
2023/05/20 06:10:18;;;;;;;6.93;2.65;;;17.50;56.50;;;;;;5069519;28;20024;-65
2023/05/20 06:12:44;;;;;;;7.45;2.58;;;17.60;56.20;;;;;;5063482;28;20024;-65
2023/05/20 06:15:10;;;;;;;9.77;2.75;;;17.70;55.80;;;;;;5065532;28;20123;-65
2023/05/20 06:17:37;;;;;;;7.38;2.85;;;17.80;55.70;;;;;;5068199;28;20024;-65
2023/05/20 06:20:03;;;;;;;5.55;2.40;;;17.90;55.60;;;;;;5059147;28;20029;-65
2023/05/20 06:22:29;;;;;;;6.40;2.40;;;18.00;55.20;;;;;;5072690;28;20031;-65
2023/05/20 06:24:59;;;;;;;8.70;2.80;;;18.10;55.10;;;;;;5063032;28;20048;-65
2023/05/20 06:27:25;;;;;;;6.95;2.72;;;18.30;55.10;;;;;;5065949;28;20454;-65
2023/05/20 06:29:51;;;;;;;5.93;2.72;;;18.40;54.80;;;;;;5060309;28;20032;-64
2023/05/20 06:32:16;;;;;;;6.13;2.50;;;18.50;54.50;;;;;;5068948;28;20066;-63
2023/05/20 06:34:42;;;;;;;6.35;2.22;;;18.60;54.30;;;;;;5069166;28;20021;-64
2023/05/20 06:37:08;;;;;;;5.13;2.38;;;18.80;54.20;;;;;;5068590;28;20024;-64
2023/05/20 06:39:35;;;;;;;6.32;2.38;;;18.90;53.90;;;;;;5072439;28;20024;-64
2023/05/20 06:42:00;;;;;;;5.05;2.17;;;19.10;53.70;;;;;;5061595;28;20137;-64
2023/05/20 06:44:29;;;;;;;3.92;1.75;;;19.20;53.50;;;;;;5067542;28;20060;-64
2023/05/20 06:47:00;;;;;;;6.00;2.72;;;19.30;53.30;;;;;;5059116;28;20054;-64
2023/05/20 06:49:27;;;;;;;5.78;2.58;;;19.40;53.00;;;;;;5052835;28;20317;-64
2023/05/20 06:51:53;;;;;;;6.10;2.63;;;19.60;52.80;;;;;;5058125;28;20025;-65
2023/05/20 06:54:20;;;;;;;9.52;2.55;;;19.70;52.60;;;;;;5063766;28;20038;-64
2023/05/20 06:56:46;;;;;;;4.65;2.25;;;19.80;52.40;;;;;;5072966;28;20123;-64
2023/05/20 06:59:13;;;;;;;6.03;2.30;;;19.90;52.20;;;;;;5057806;28;20033;-64
2023/05/20 07:01:39;;;;;;;7.00;2.28;;;20.00;51.90;;;;;;5067038;28;20021;-65
2023/05/20 07:04:06;;;;;;;4.57;2.03;;;20.10;51.70;;;;;;5085598;28;20059;-65
2023/05/20 07:06:32;;;;;;;5.15;2.03;;;20.20;51.40;;;;;;5064444;28;20415;-64
2023/05/20 07:08:59;;;;;;;5.50;2.25;;;20.40;51.10;;;;;;5072131;28;20039;-65
2023/05/20 07:11:25;;;;;;;4.25;1.92;;;20.60;50.70;;;;;;5054982;28;20036;-65
2023/05/20 07:13:52;;;;;;;5.50;2.28;;;20.70;50.30;;;;;;5069274;28;20025;-64
2023/05/20 07:16:18;;;;;;;5.32;2.30;;;20.80;50.10;;;;;;5073385;28;20119;-64
2023/05/20 07:18:49;;;;;;;5.88;2.47;;;20.90;49.80;;;;;;5056733;28;20460;-64
2023/05/20 07:21:14;;;;;;;5.65;2.28;;;21.00;49.50;;;;;;5067585;28;20025;-64
2023/05/20 07:24:12;;;;;;;5.32;2.15;;;21.10;49.10;;;;;;5039075;28;20040;-64
2023/05/20 07:26:38;;;;;;;5.90;2.15;;;21.30;48.80;;;;;;5073497;28;20039;-64
2023/05/20 07:29:05;;;;;;;4.85;2.00;;;21.40;48.40;;;;;;5074489;28;20017;-64
2023/05/20 07:31:31;;;;;;;5.75;2.42;;;21.50;48.20;;;;;;5072697;28;20349;-64
2023/05/20 07:33:58;;;;;;;5.90;2.30;;;21.60;48.00;;;;;;5073014;28;20021;-64
2023/05/20 07:36:26;;;;;;;7.28;2.67;;;21.70;47.90;;;;;;5056766;28;20425;-64
2023/05/20 07:38:52;;;;;;;8.07;2.67;;;21.80;47.60;;;;;;5073097;28;20453;-64
2023/05/20 07:41:18;;;;;;;5.78;2.40;;;21.90;47.40;;;;;;5069932;28;20047;-64
2023/05/20 07:43:44;;;;;;;4.63;2.25;;;22.00;47.10;;;;;;5073171;28;20030;-64
2023/05/20 07:46:10;;;;;;;6.30;2.33;;;22.10;46.80;;;;;;5073199;28;20394;-64
2023/05/20 07:48:36;;;;;;;6.57;2.70;;;22.20;46.50;;;;;;5073418;28;20025;-64
2023/05/20 07:51:02;;;;;;;4.80;2.10;;;22.30;46.20;;;;;;5070543;28;20020;-64
2023/05/20 07:53:28;;;;;;;4.97;2.15;;;22.30;45.80;;;;;;5068350;28;20024;-64
2023/05/20 07:55:55;;;;;;;4.25;1.90;;;22.30;45.70;;;;;;5056684;28;20048;-64
2023/05/20 07:58:21;;;;;;;6.53;2.42;;;22.40;45.50;;;;;;5056342;28;20115;-64
2023/05/20 08:00:48;;;;;;;4.35;2.00;;;22.40;45.10;;;;;;5069717;28;20048;-65
2023/05/20 08:03:14;;;;;;;5.85;1.90;;;22.50;44.90;;;;;;5072319;28;20075;-65
2023/05/20 08:05:56;;;;;;;5.25;2.13;;;22.50;44.90;;;;;;5063697;28;20021;-65
2023/05/20 08:08:22;;;;;;;4.93;2.40;;;22.60;45.10;;;;;;5072232;28;20108;-66
2023/05/20 08:10:53;;;;;;;5.38;1.95;;;22.70;44.90;;;;;;5064204;28;20021;-66
2023/05/20 08:13:21;;;;;;;5.50;2.30;;;22.80;44.80;;;;;;5065492;28;20020;-65
2023/05/20 08:15:47;;;;;;;6.80;2.22;;;22.80;44.40;;;;;;5072683;28;20459;-65
2023/05/20 08:18:15;;;;;;;5.85;2.35;;;22.90;44.60;;;;;;5065313;28;20354;-66
2023/05/20 08:20:43;;;;;;;4.18;1.98;;;23.00;44.60;;;;;;5063923;28;20107;-66
2023/05/20 08:23:09;;;;;;;4.25;1.88;;;23.10;44.50;;;;;;5070427;28;20024;-66
2023/05/20 08:25:36;;;;;;;5.03;2.13;;;23.20;44.10;;;;;;5054031;28;20128;-66
2023/05/20 08:28:05;;;;;;;4.90;2.00;;;23.20;43.80;;;;;;5063589;28;20365;-66
2023/05/20 08:30:32;;;;;;;5.03;2.28;;;23.20;43.60;;;;;;5067371;28;20338;-66
2023/05/20 08:32:59;;;;;;;4.60;2.28;;;23.20;43.50;;;;;;5057719;28;20025;-66
2023/05/20 08:35:26;;;;;;;4.55;2.15;;;23.30;43.20;;;;;;5073134;28;20331;-65
2023/05/20 08:37:55;;;;;;;5.60;2.35;;;23.30;43.10;;;;;;5069148;28;20020;-66
2023/05/20 08:40:21;;;;;;;5.88;2.00;;;23.30;43.10;;;;;;5072897;28;20020;-66
2023/05/20 08:42:49;;;;;;;4.43;2.10;;;23.30;42.90;;;;;;5071006;28;20112;-65
2023/05/20 08:45:18;;;;;;;6.32;2.28;;;23.40;43.00;;;;;;5073943;28;20025;-65
2023/05/20 08:47:44;;;;;;;4.13;1.95;;;23.40;43.00;;;;;;5070637;28;20025;-65
2023/05/20 08:50:12;;;;;;;4.18;1.90;;;23.60;43.20;;;;;;5072760;28;20029;-65
2023/05/20 08:52:46;;;;;;;4.05;1.75;;;23.70;42.90;;;;;;5069308;28;20429;-65
2023/05/20 08:55:23;;;;;;;6.13;2.33;;;23.90;42.80;;;;;;5070020;28;20412;-66
2023/05/20 08:57:50;;;;;;;5.90;1.92;;;23.90;42.30;;;;;;5067763;28;20127;-66
2023/05/20 09:00:17;;;;;;;3.85;1.92;;;24.00;42.20;;;;;;5074236;28;20041;-65
2023/05/20 09:02:46;;;;;;;5.68;1.90;;;24.00;42.00;;;;;;5074337;28;20082;-65
2023/05/20 09:05:11;;;;;;;5.70;2.10;;;24.10;41.40;;;;;;5061127;28;20109;-65
2023/05/20 09:07:37;;;;;;;4.35;1.85;;;24.00;41.20;;;;;;5075033;28;20040;-65
2023/05/20 09:10:04;;;;;;;4.55;1.70;;;24.10;41.00;;;;;;5075991;28;20450;-65
2023/05/20 09:12:30;;;;;;;3.78;1.60;;;24.20;40.70;;;;;;5071528;28;20352;-65
2023/05/20 09:14:56;;;;;;;3.30;1.38;;;24.30;40.60;;;;;;5066287;28;20115;-65
2023/05/20 09:17:22;;;;;;;4.93;1.75;;;24.40;40.50;;;;;;5074702;28;20479;-65
2023/05/20 09:19:52;;;;;;;4.38;1.60;;;24.40;40.10;;;;;;5061418;28;20360;-65
2023/05/20 09:22:26;;;;;;;4.60;1.60;;;24.50;39.90;;;;;;5065586;28;20033;-65
2023/05/20 09:24:52;;;;;;;3.83;1.70;;;24.50;40.10;;;;;;5054679;28;20046;-65
2023/05/20 09:27:19;;;;;;;4.95;1.77;;;24.60;40.10;;;;;;5062193;28;20438;-65
2023/05/20 09:29:49;;;;;;;3.85;1.50;;;24.50;39.90;;;;;;5074503;28;20126;-65
2023/05/20 09:32:15;;;;;;;3.72;1.60;;;24.40;39.70;;;;;;5072133;28;20024;-65
2023/05/20 09:34:42;;;;;;;5.63;2.05;;;24.50;39.60;;;;;;5071671;28;20174;-66
2023/05/20 09:37:08;;;;;;;5.25;1.60;;;24.50;39.50;;;;;;5076863;28;20047;-66
2023/05/20 09:39:56;;;;;;;3.03;1.38;;;24.50;39.20;;;;;;5074637;28;20025;-66
2023/05/20 09:42:30;;;;;;;6.18;1.73;;;24.50;39.00;;;;;;5062778;28;20036;-65
2023/05/20 09:44:57;;;;;;;5.32;1.83;;;24.50;39.00;;;;;;5071673;28;20028;-65
2023/05/20 09:47:26;;;;;;;4.60;1.77;;;24.70;39.00;;;;;;5073155;28;20110;-66
2023/05/20 09:49:52;;;;;;;2.83;1.38;;;24.70;38.80;;;;;;5061844;28;20449;-66
2023/05/20 09:52:18;;;;;;;6.00;2.03;;;24.70;38.80;;;;;;5069048;28;20112;-66
2023/05/20 09:54:45;;;;;;;4.35;1.45;;;24.70;38.70;;;;;;5073137;28;20025;-66
2023/05/20 09:57:12;;;;;;;2.75;1.40;;;24.80;38.60;;;;;;5074079;28;20062;-66
2023/05/20 09:59:39;;;;;;;3.58;1.75;;;24.90;38.70;;;;;;5068263;28;20043;-66
2023/05/20 10:02:05;;;;;;;4.90;1.50;;;24.90;38.60;;;;;;5071196;28;20071;-66
2023/05/20 10:04:34;;;;;;;5.85;1.95;;;24.80;38.50;;;;;;5074025;28;20159;-66
2023/05/20 10:07:10;;;;;;;5.40;1.63;;;24.90;38.60;;;;;;5074611;28;20029;-66
2023/05/20 10:10:02;;;;;;;4.75;1.70;;;24.90;38.70;;;;;;5071825;28;20074;-66
2023/05/20 10:12:36;;;;;;;;;;;25.00;38.50;;;;;;5073609;28;20043;-66
2023/05/20 10:15:22;;;;;;;7.13;1.70;;;25.00;38.70;;;;;;5070315;28;20013;-65
2023/05/20 10:18:07;;;;;;;5.90;1.65;;;25.00;38.50;;;;;;5072405;28;20041;-67
2023/05/20 10:20:47;;;;;;;6.05;1.70;;;25.00;38.50;;;;;;5056890;28;20071;-66
2023/05/20 10:23:23;;;;;;;3.70;1.50;;;25.00;38.40;;;;;;5071729;28;20403;-66
2023/05/20 10:25:51;;;;;;;7.43;1.63;;;25.00;38.40;;;;;;5073138;28;20044;-66
2023/05/20 10:28:31;;;;;;;3.97;1.70;;;25.00;38.20;;;;;;5055720;28;20040;-66
2023/05/20 10:30:58;;;;;;;4.25;1.80;;;25.10;38.30;;;;;;5070593;28;20031;-66
2023/05/20 10:33:26;;;;;;;5.35;1.83;;;25.10;38.10;;;;;;5067276;28;20063;-65
2023/05/20 10:35:53;;;;;;;3.70;1.60;;;25.10;38.00;;;;;;5066194;28;20027;-66
2023/05/20 10:38:20;;;;;;;3.65;1.58;;;25.10;38.10;;;;;;5069011;28;20765;-65
2023/05/20 10:40:46;;;;;;;3.35;1.55;;;25.10;37.90;;;;;;5064763;28;20025;-65
2023/05/20 10:43:14;;;;;;;4.45;1.50;;;25.10;37.70;;;;;;5057503;28;20032;-65
2023/05/20 10:45:50;;;;;;;3.42;1.60;;;25.10;37.60;;;;;;5063147;28;20395;-67
2023/05/20 10:48:32;;;;;;;4.28;1.80;;;25.10;37.50;;;;;;5075164;28;20047;-66
2023/05/20 10:51:02;;;;;;;4.38;1.55;;;25.20;37.80;;;;;;5065617;28;20064;-66
2023/05/20 10:53:36;;;;;;;2.30;1.40;;;25.30;37.80;;;;;;5073207;28;20105;-66
2023/05/20 10:56:03;;;;;;;3.88;1.50;;;25.30;37.70;;;;;;5072582;28;20028;-67
2023/05/20 10:58:36;;;;;;;3.95;1.70;;;25.30;37.80;;;;;;5074554;28;20028;-66
2023/05/20 11:01:02;;;;;;;4.45;1.70;;;25.30;37.70;;;;;;5073270;28;20032;-66
2023/05/20 11:03:29;;;;;;;4.75;1.60;;;25.30;37.60;;;;;;5063100;28;20365;-66
2023/05/20 11:05:54;;;;;;;3.25;1.50;;;25.30;37.60;;;;;;5074743;28;20032;-66
2023/05/20 11:08:20;;;;;;;5.25;1.60;;;25.30;37.70;;;;;;5075269;28;20031;-66
2023/05/20 11:10:46;;;;;;;3.38;1.50;;;25.40;37.70;;;;;;5068794;28;20020;-66
2023/05/20 11:13:15;;;;;;;4.50;1.60;;;25.40;37.60;;;;;;5071256;28;20166;-66
2023/05/20 11:15:42;;;;;;;7.15;2.00;;;25.50;37.50;;;;;;5073507;28;20437;-66
2023/05/20 11:18:10;;;;;;;3.88;1.73;;;25.50;37.40;;;;;;5070298;28;20039;-67
2023/05/20 11:20:36;;;;;;;3.80;1.60;;;25.50;37.30;;;;;;5065436;28;20070;-66
2023/05/20 11:23:04;;;;;;;3.35;1.50;;;25.50;37.30;;;;;;5074278;28;20453;-66
2023/05/20 11:25:32;;;;;;;3.83;1.60;;;25.70;37.30;;;;;;5073076;28;20049;-66
2023/05/20 11:27:58;;;;;;;3.72;1.52;;;25.70;37.20;;;;;;5072995;28;20044;-66
2023/05/20 11:30:24;;;;;;;4.82;1.63;;;25.50;37.10;;;;;;5051062;28;20052;-66
2023/05/20 11:32:57;;;;;;;4.63;1.70;;;25.30;37.30;;;;;;5059466;28;20029;-66
2023/05/20 11:35:29;;;;;;;3.10;1.33;;;25.00;37.30;;;;;;5060495;28;20032;-66
2023/05/20 11:37:56;;;;;;;4.35;1.75;;;24.80;37.90;;;;;;5074732;28;20402;-66
2023/05/20 11:40:26;;;;;;;3.55;1.55;;;24.70;38.10;;;;;;5066799;28;20028;-66
2023/05/20 11:42:54;;;;;;;4.47;1.77;;;24.70;38.20;;;;;;5072541;28;20028;-66
2023/05/20 11:45:19;;;;;;;6.32;1.95;;;24.60;38.30;;;;;;5074314;28;20111;-66
2023/05/20 11:47:45;;;;;;;5.70;1.52;;;24.70;39.00;;;;;;5074318;28;20135;-66
2023/05/20 11:50:19;;;;;;;2.78;1.30;;;24.70;38.10;;;;;;5072333;28;20481;-66
2023/05/20 11:52:45;;;;;;;3.30;1.48;;;24.70;37.90;;;;;;5073414;28;20023;-66
2023/05/20 11:55:10;;;;;;;4.32;1.50;;;24.70;38.10;;;;;;5074536;28;20358;-66
2023/05/20 11:57:37;;;;;;;3.85;1.73;;;24.60;38.30;;;;;;5074224;28;20163;-66
2023/05/20 12:00:06;;;;;;;3.13;1.50;;;24.50;38.40;;;;;;5063604;28;20476;-66
2023/05/20 12:02:31;;;;;;;5.93;1.98;;;24.50;38.50;;;;;;5074473;28;20063;-66
2023/05/20 12:04:57;;;;;;;4.20;1.60;;;24.40;38.50;;;;;;5074485;28;20472;-66
2023/05/20 12:07:23;;;;;;;5.60;1.77;;;24.30;38.40;;;;;;5074430;28;20032;-66
2023/05/20 12:09:49;;;;;;;3.80;1.42;;;24.20;38.60;;;;;;5072130;28;20020;-66
2023/05/20 12:12:15;;;;;;;4.20;1.90;;;24.10;38.70;;;;;;5074462;28;20048;-66
2023/05/20 12:14:41;;;;;;;3.97;1.70;;;24.00;38.80;;;;;;5074497;28;20421;-66
2023/05/20 12:17:06;;;;;;;3.33;1.63;;;24.00;39.00;;;;;;5073884;28;20051;-66
2023/05/20 12:19:32;;;;;;;5.28;1.52;;;24.00;39.10;;;;;;5061036;28;20112;-66
2023/05/20 12:21:58;;;;;;;4.82;1.48;;;23.90;39.00;;;;;;5078264;28;20017;-66
2023/05/20 12:24:24;;;;;;;6.50;1.80;;;23.90;39.00;;;;;;5059958;28;20484;-66
2023/05/20 12:26:49;;;;;;;4.43;1.75;;;23.70;39.10;;;;;;5076762;28;20044;-66
2023/05/20 12:29:16;;;;;;;3.95;1.60;;;23.70;39.20;;;;;;5067115;28;20041;-66
2023/05/20 12:31:42;;;;;;;4.65;1.60;;;23.50;39.20;;;;;;5061117;28;20089;-66
2023/05/20 12:34:08;;;;;;;3.25;1.40;;;23.40;39.50;;;;;;5076775;28;20034;-66
2023/05/20 12:36:34;;;;;;;5.63;1.70;;;23.30;39.60;;;;;;5077766;28;20036;-66
2023/05/20 12:38:59;;;;;;;3.78;1.60;;;23.30;39.70;;;;;;5077226;28;20033;-66
2023/05/20 12:41:25;;;;;;;5.75;1.98;;;23.30;39.80;;;;;;5071953;28;20055;-66
2023/05/20 12:43:51;;;;;;;3.17;1.40;;;23.30;39.80;;;;;;5077451;28;20050;-66
2023/05/20 12:46:17;;;;;;;3.72;1.48;;;23.20;39.90;;;;;;5077796;28;20467;-66